createdAt,value
2023-01-26T00:01:47.563Z,6.20
2023-01-26T00:06:51.687Z,7.00
2023-01-26T00:11:54.458Z,8.00
2023-01-26T00:16:57.270Z,6.00
2023-01-26T00:22:01.336Z,6.00
2023-01-26T00:27:04.130Z,6.20
2023-01-26T00:32:07.247Z,6.00
2023-01-26T00:37:11.411Z,6.20
2023-01-26T00:42:15.841Z,5.80
2023-01-26T00:47:19.022Z,6.60
2023-01-26T00:52:23.121Z,6.00
2023-01-26T00:57:26.503Z,6.00
2023-01-26T01:02:29.406Z,5.00
2023-01-26T01:07:33.549Z,6.60
2023-01-26T01:12:36.437Z,5.60
2023-01-26T01:17:39.196Z,5.60
2023-01-26T01:22:43.379Z,5.20
2023-01-26T01:27:46.887Z,5.60
2023-01-26T01:32:51.608Z,5.00
2023-01-26T01:37:55.792Z,5.60
2023-01-26T01:42:58.651Z,6.00
2023-01-26T01:48:02.423Z,5.60
2023-01-26T01:53:06.664Z,5.40
2023-01-26T01:58:10.213Z,5.20
2023-01-26T02:03:14.732Z,5.00
2023-01-26T02:08:19.585Z,5.80
2023-01-26T02:13:22.577Z,6.00
2023-01-26T02:18:25.463Z,6.00
2023-01-26T02:23:50.278Z,5.80
2023-01-26T02:28:54.495Z,5.00
2023-01-26T02:33:57.259Z,5.00
2023-01-26T02:39:13.711Z,5.00
2023-01-26T02:44:18.018Z,4.80
2023-01-26T02:49:38.515Z,5.00
2023-01-26T02:54:58.684Z,5.00
2023-01-26T03:00:02.868Z,5.40
2023-01-26T03:05:07.498Z,5.00
2023-01-26T03:10:13.446Z,5.00
2023-01-26T03:15:42.614Z,5.00
2023-01-26T03:21:03.505Z,4.80
2023-01-26T03:26:23.978Z,5.00
2023-01-26T03:31:28.221Z,4.00
2023-01-26T03:36:31.187Z,4.40
2023-01-26T03:41:52.782Z,5.00
2023-01-26T03:47:14.773Z,5.00
2023-01-26T03:52:35.322Z,4.00
2023-01-26T03:57:38.692Z,5.00
2023-01-26T04:03:00.483Z,4.00
2023-01-26T04:08:22.836Z,4.60
2023-01-26T04:13:47.010Z,5.00
2023-01-26T04:19:15.592Z,4.20
2023-01-26T04:24:21.767Z,4.00
2023-01-26T04:29:28.822Z,5.00
2023-01-26T04:34:33.055Z,4.20
2023-01-26T04:39:37.538Z,4.20
2023-01-26T04:44:41.526Z,2.40
2023-01-26T04:49:46.662Z,4.00
2023-01-26T04:54:51.379Z,4.00
2023-01-26T04:59:54.497Z,4.00
2023-01-26T05:04:58.773Z,3.60
2023-01-26T05:10:01.749Z,5.00
2023-01-26T05:15:29.239Z,5.00
2023-01-26T05:20:44.630Z,4.80
2023-01-26T05:25:52.907Z,4.20
2023-01-26T05:30:56.071Z,4.00
2023-01-26T05:36:04.401Z,4.00
2023-01-26T05:41:07.956Z,4.40
2023-01-26T05:46:24.212Z,4.00
2023-01-26T05:51:28.586Z,4.00
2023-01-26T05:56:31.761Z,3.60
2023-01-26T06:01:37.894Z,4.00
2023-01-26T06:06:44.569Z,3.60
2023-01-26T06:12:07.768Z,4.00
2023-01-26T06:17:22.649Z,3.60
2023-01-26T06:22:32.985Z,2.00
2023-01-26T06:27:35.766Z,4.00
2023-01-26T06:32:44.727Z,4.00
2023-01-26T06:37:51.369Z,2.80
2023-01-26T06:42:54.386Z,2.00
2023-01-26T06:47:57.240Z,3.60
2023-01-26T06:53:02.075Z,3.20
2023-01-26T06:58:27.710Z,2.00
2023-01-26T07:03:49.978Z,4.00
2023-01-26T07:08:54.188Z,3.20
2023-01-26T07:13:57.066Z,4.00
2023-01-26T07:18:59.845Z,2.00
2023-01-26T07:24:04.416Z,2.80
2023-01-26T07:29:07.388Z,4.00
2023-01-26T07:34:10.464Z,2.00
2023-01-26T07:39:14.621Z,3.20
2023-01-26T07:44:17.543Z,4.00
2023-01-26T07:49:20.366Z,2.40
2023-01-26T07:54:24.632Z,4.00
2023-01-26T07:59:27.460Z,2.00
2023-01-26T08:04:30.359Z,4.00
2023-01-26T08:09:34.522Z,2.00
2023-01-26T08:14:46.391Z,2.00
2023-01-26T08:19:49.652Z,2.40
2023-01-26T08:24:53.885Z,8.00
2023-01-26T08:29:56.652Z,11.00
2023-01-26T08:34:59.931Z,10.00
2023-01-26T08:40:04.341Z,10.60
2023-01-26T08:45:07.945Z,7.00
2023-01-26T08:50:11.980Z,6.60
2023-01-26T08:55:16.568Z,4.80
2023-01-26T09:00:20.067Z,4.00
2023-01-26T09:05:22.821Z,5.00
2023-01-26T09:10:27.107Z,5.00
2023-01-26T09:15:29.909Z,5.00
2023-01-26T09:20:32.669Z,5.00
2023-01-26T09:25:38.362Z,4.00
2023-01-26T09:30:41.336Z,3.20
2023-01-26T09:35:44.266Z,4.00
2023-01-26T09:40:52.540Z,3.60
2023-01-26T09:45:59.397Z,4.40
2023-01-26T09:51:03.512Z,4.00
2023-01-26T09:56:09.504Z,2.00
2023-01-26T10:01:16.123Z,3.20
2023-01-26T10:06:22.310Z,4.00
2023-01-26T10:11:44.604Z,5.00
2023-01-26T10:16:48.714Z,4.00
2023-01-26T10:21:51.861Z,3.60
2023-01-26T10:26:58.403Z,2.00
2023-01-26T10:32:01.203Z,3.60
2023-01-26T10:37:22.432Z,3.20
2023-01-26T10:42:27.599Z,3.20
2023-01-26T10:47:30.392Z,2.00
2023-01-26T10:52:33.401Z,2.00
2023-01-26T10:57:38.906Z,1.20
2023-01-26T11:02:41.718Z,2.00
2023-01-26T11:07:44.862Z,2.00
2023-01-26T11:12:49.189Z,2.00
2023-01-26T11:17:55.902Z,2.00
2023-01-26T11:23:00.085Z,2.00
2023-01-26T11:28:25.588Z,2.00
2023-01-26T11:33:31.090Z,2.00
2023-01-26T11:38:37.497Z,2.00
2023-01-26T11:43:52.696Z,2.00
2023-01-26T11:49:03.129Z,2.00
2023-01-26T11:54:29.535Z,2.00
2023-01-26T11:59:36.834Z,1.00
2023-01-26T12:04:45.465Z,2.00
2023-01-26T12:09:48.758Z,1.00
2023-01-26T12:14:54.780Z,1.00
2023-01-26T12:20:04.488Z,2.00
2023-01-26T12:25:27.444Z,1.00
2023-01-26T12:30:35.950Z,2.00
2023-01-26T12:35:49.535Z,1.00
2023-01-26T12:40:59.120Z,1.20
2023-01-26T12:46:03.295Z,1.20
2023-01-26T12:51:07.343Z,2.00
2023-01-26T12:56:13.246Z,1.00
2023-01-26T13:01:17.961Z,1.80
2023-01-26T13:06:22.103Z,1.00
2023-01-26T13:11:45.359Z,2.00
2023-01-26T13:16:49.575Z,1.00
2023-01-26T13:21:52.322Z,2.00
2023-01-26T13:26:55.297Z,1.00
2023-01-26T13:32:00.505Z,1.00
2023-01-26T13:37:06.144Z,1.00
2023-01-26T13:42:16.930Z,1.00
2023-01-26T13:47:23.582Z,1.00
2023-01-26T13:52:26.806Z,3.60
2023-01-26T13:57:30.607Z,3.20
2023-01-26T14:02:36.096Z,3.60
2023-01-26T14:07:39.988Z,2.00
2023-01-26T14:12:43.610Z,4.00
2023-01-26T14:17:50.347Z,2.00
2023-01-26T14:23:13.728Z,2.00
2023-01-26T14:28:17.379Z,4.00
2023-01-26T14:33:21.497Z,2.00
2023-01-26T14:38:24.294Z,2.00
2023-01-26T14:43:27.810Z,2.00
2023-01-26T14:48:33.546Z,4.40
2023-01-26T14:53:36.287Z,4.00
2023-01-26T14:58:41.350Z,4.00
2023-01-26T15:03:45.455Z,2.80
2023-01-26T15:08:56.471Z,3.80
2023-01-26T15:13:59.367Z,3.80
2023-01-26T15:19:04.717Z,2.00
2023-01-26T15:24:07.645Z,1.80
2023-01-26T15:29:19.674Z,2.00
2023-01-26T15:34:32.425Z,2.00
2023-01-26T15:39:35.373Z,2.00
2023-01-26T15:44:38.212Z,1.80
2023-01-26T15:49:42.914Z,2.00
2023-01-26T15:54:45.724Z,2.80
2023-01-26T15:59:48.555Z,2.00
2023-01-26T16:04:52.695Z,2.00
2023-01-26T16:09:55.462Z,1.00
2023-01-26T16:14:59.350Z,2.00
2023-01-26T16:20:03.533Z,2.00
2023-01-26T16:25:13.647Z,2.00
2023-01-26T16:30:17.323Z,2.40
2023-01-26T16:35:22.818Z,1.80
2023-01-26T16:40:25.560Z,2.00
2023-01-26T16:45:28.449Z,1.20
2023-01-26T16:50:32.678Z,2.80
2023-01-26T16:55:35.504Z,1.80
2023-01-26T17:00:38.293Z,2.00
2023-01-26T17:05:42.451Z,2.00
2023-01-26T17:10:59.859Z,4.20
2023-01-26T17:16:05.023Z,13.80
2023-01-26T17:21:09.165Z,23.00
2023-01-26T17:26:12.870Z,20.00
2023-01-26T17:31:17.699Z,16.00
2023-01-26T17:36:22.199Z,15.80
2023-01-26T17:41:25.121Z,14.20
2023-01-26T17:46:27.915Z,13.80
2023-01-26T17:51:32.074Z,12.00
2023-01-26T17:56:34.974Z,10.60
2023-01-26T18:01:37.733Z,11.60
2023-01-26T18:06:41.867Z,8.60
2023-01-26T18:11:44.662Z,10.00
2023-01-26T18:16:47.592Z,10.00
2023-01-26T18:21:51.733Z,8.60
2023-01-26T18:26:54.522Z,7.60
2023-01-26T18:31:57.532Z,6.00
2023-01-26T18:37:01.715Z,6.80
2023-01-26T18:42:04.671Z,7.00
2023-01-26T18:47:07.624Z,7.00
2023-01-26T18:52:11.842Z,6.60
2023-01-26T18:57:14.658Z,6.00
2023-01-26T19:02:17.514Z,6.20
2023-01-26T19:07:21.877Z,7.00
2023-01-26T19:12:24.917Z,6.20
2023-01-26T19:17:27.927Z,7.00
2023-01-26T19:22:32.030Z,6.40
2023-01-26T19:27:34.904Z,6.40
2023-01-26T19:32:37.649Z,5.80
2023-01-26T19:37:41.856Z,6.00
2023-01-26T19:42:44.866Z,6.60
2023-01-26T19:47:47.956Z,6.00
2023-01-26T19:52:52.061Z,6.40
2023-01-26T19:57:54.868Z,5.00
2023-01-26T20:02:57.696Z,6.20
2023-01-26T20:08:01.867Z,6.60
2023-01-26T20:13:04.872Z,6.20
2023-01-26T20:18:07.836Z,7.00
2023-01-26T20:23:11.965Z,7.00
2023-01-26T20:28:14.801Z,6.00
2023-01-26T20:33:17.734Z,6.00
2023-01-26T20:38:21.882Z,6.00
2023-01-26T20:43:25.001Z,7.00
2023-01-26T20:48:27.781Z,7.00
2023-01-26T20:53:32.088Z,6.00
2023-01-26T20:58:34.836Z,7.20
2023-01-26T21:03:38.055Z,7.00
2023-01-26T21:08:42.225Z,6.40
2023-01-26T21:13:45.550Z,6.00
2023-01-26T21:18:49.285Z,6.80
2023-01-26T21:23:53.603Z,7.00
2023-01-26T21:28:57.145Z,6.00
2023-01-26T21:34:00.061Z,5.80
2023-01-26T21:39:04.851Z,5.80
2023-01-26T21:44:08.513Z,7.00
2023-01-26T21:49:11.610Z,5.20
2023-01-26T21:54:15.868Z,5.00
2023-01-26T21:59:19.066Z,5.20
2023-01-26T22:04:23.622Z,5.00
2023-01-26T22:09:28.292Z,5.60
2023-01-26T22:14:31.137Z,4.60
2023-01-26T22:19:33.888Z,4.80
2023-01-26T22:24:38.022Z,5.00
2023-01-26T22:29:40.796Z,3.00
2023-01-26T22:34:43.675Z,5.00
2023-01-26T22:39:49.006Z,5.00
2023-01-26T22:44:51.819Z,5.00
2023-01-26T22:49:54.550Z,5.00
2023-01-26T22:54:58.694Z,4.60
2023-01-26T23:00:02.509Z,5.00
2023-01-26T23:05:05.987Z,3.00
2023-01-26T23:10:11.349Z,3.40
2023-01-26T23:15:14.462Z,5.00
2023-01-26T23:20:17.704Z,5.00
2023-01-26T23:25:50.681Z,4.60
2023-01-26T23:30:54.078Z,2.80
2023-01-26T23:35:56.906Z,5.00
2023-01-26T23:41:01.338Z,5.00
2023-01-26T23:46:04.909Z,3.00
2023-01-26T23:51:08.587Z,5.00
2023-01-26T23:56:14.849Z,3.00
